createdAt,value
2022-10-11T00:01:45.244Z,10.47
2022-10-11T00:04:12.688Z,10.49
2022-10-11T00:09:50.156Z,10.50
2022-10-11T00:13:10.320Z,10.40
2022-10-11T00:29:41.692Z,9.96
2022-10-11T00:32:42.331Z,9.84
2022-10-11T00:35:18.211Z,9.82
2022-10-11T00:38:14.658Z,9.74
2022-10-11T03:26:12.482Z,8.30
2022-10-11T03:31:36.459Z,8.10
2022-10-11T03:34:03.317Z,8.24
2022-10-11T03:36:30.037Z,8.30
2022-10-11T03:38:57.055Z,8.41
2022-10-11T03:41:23.778Z,8.29
2022-10-11T03:43:50.518Z,8.37
2022-10-11T03:46:17.663Z,8.38
2022-10-11T03:48:44.621Z,8.31
2022-10-11T03:51:13.178Z,8.25
2022-10-11T03:53:40.022Z,8.22
2022-10-11T03:56:08.545Z,8.06
2022-10-11T03:58:35.550Z,8.15
2022-10-11T04:01:02.402Z,7.97
2022-10-11T04:03:29.206Z,7.99
2022-10-11T04:05:55.906Z,7.93
2022-10-11T04:08:28.882Z,7.79
2022-10-11T04:10:56.071Z,7.82
2022-10-11T04:13:22.850Z,7.84
2022-10-11T04:15:49.577Z,7.81
2022-10-11T04:18:16.321Z,7.75
2022-10-11T04:20:43.034Z,7.85
2022-10-11T04:23:13.199Z,7.95
2022-10-11T04:25:43.810Z,7.85
2022-10-11T04:28:11.323Z,7.76
2022-10-11T04:30:38.334Z,7.64
2022-10-11T04:33:05.362Z,7.67
2022-10-11T04:35:34.884Z,7.63
2022-10-11T04:38:03.870Z,7.64
2022-10-11T04:40:30.814Z,7.48
2022-10-11T04:42:58.328Z,7.51
2022-10-11T04:45:25.379Z,7.56
2022-10-11T04:47:55.628Z,7.54
2022-10-11T04:50:23.286Z,7.56
2022-10-11T04:52:50.516Z,7.54
2022-10-11T04:55:18.162Z,7.50
2022-10-11T04:57:45.439Z,7.46
2022-10-11T05:00:19.435Z,7.55
2022-10-11T05:02:56.218Z,7.56
2022-10-11T05:05:23.809Z,7.56
2022-10-11T05:07:53.290Z,7.60
2022-10-11T05:10:20.494Z,7.60
2022-10-11T05:12:48.117Z,7.59
2022-10-11T05:15:15.143Z,7.57
2022-10-11T05:17:42.073Z,7.63
2022-10-11T05:20:10.006Z,7.62
2022-10-11T05:22:37.339Z,7.66
2022-10-11T05:25:04.882Z,7.62
2022-10-11T05:27:32.632Z,7.72
2022-10-11T05:30:00.178Z,7.83
2022-10-11T05:32:28.117Z,7.97
2022-10-11T05:34:55.742Z,7.91
2022-10-11T05:37:25.575Z,7.84
2022-10-11T05:39:53.307Z,7.93
2022-10-11T05:42:20.131Z,7.92
2022-10-11T05:44:46.995Z,7.87
2022-10-11T05:47:13.825Z,8.02
2022-10-11T05:49:40.683Z,7.83
2022-10-11T05:52:09.268Z,7.77
2022-10-11T05:54:36.197Z,7.79
2022-10-11T05:57:05.977Z,7.95
2022-10-11T05:59:35.178Z,8.09
2022-10-11T06:02:02.017Z,7.95
2022-10-11T06:04:28.870Z,7.94
2022-10-11T06:06:55.691Z,7.73
2022-10-11T06:09:22.686Z,8.01
2022-10-11T06:11:49.618Z,8.15
2022-10-11T06:15:14.730Z,7.99
2022-10-11T06:18:20.938Z,7.71
2022-10-11T06:23:17.054Z,7.72
2022-10-11T06:25:43.856Z,7.73
2022-10-11T06:28:10.732Z,7.56
2022-10-11T06:30:38.794Z,7.63
2022-10-11T06:33:05.853Z,7.71
2022-10-11T06:35:32.714Z,7.71
2022-10-11T06:37:59.537Z,7.66
2022-10-11T06:40:26.657Z,7.57
2022-10-11T06:42:53.884Z,7.74
2022-10-11T06:45:20.767Z,7.76
2022-10-11T06:47:47.705Z,7.74
2022-10-11T06:50:54.429Z,7.74
2022-10-11T06:53:31.837Z,7.77
2022-10-11T06:57:18.008Z,7.74
2022-10-11T07:00:21.147Z,7.73
2022-10-11T07:02:53.511Z,7.91
2022-10-11T07:05:21.788Z,7.97
2022-10-11T07:11:45.057Z,7.92
2022-10-11T07:18:50.579Z,8.22
2022-10-11T07:21:35.013Z,8.31
2022-10-11T07:24:33.231Z,8.31
2022-10-11T07:27:00.984Z,8.22
2022-10-11T07:29:43.745Z,8.23
2022-10-11T07:32:19.215Z,8.31
2022-10-11T07:38:05.317Z,8.59
2022-10-11T07:41:16.690Z,8.48
2022-10-11T07:43:52.736Z,8.33
2022-10-11T07:46:28.194Z,8.38
2022-10-11T07:49:14.881Z,8.56
2022-10-11T07:51:46.024Z,8.51
2022-10-11T07:54:12.877Z,8.58
2022-10-11T07:56:40.308Z,8.64
2022-10-11T07:59:08.214Z,8.81
2022-10-11T08:01:35.170Z,8.53
2022-10-11T08:04:02.131Z,8.50
2022-10-11T08:06:32.654Z,8.57
2022-10-11T08:09:00.309Z,8.57
2022-10-11T08:11:36.152Z,8.54
2022-10-11T08:14:32.951Z,8.66
2022-10-11T08:17:08.327Z,8.60
2022-10-11T08:19:49.117Z,8.63
2022-10-11T08:22:16.844Z,8.67
2022-10-11T08:24:43.670Z,8.75
2022-10-11T08:27:10.457Z,8.70
2022-10-11T08:29:37.305Z,8.76
2022-10-11T08:32:04.256Z,8.77
2022-10-11T08:34:31.152Z,8.90
2022-10-11T08:36:57.948Z,8.96
2022-10-11T08:39:24.858Z,9.00
2022-10-11T08:42:01.041Z,9.07
2022-10-11T08:45:09.013Z,9.07
2022-10-11T08:47:33.196Z,9.24
2022-10-11T08:50:00.331Z,9.29
2022-10-11T08:53:15.649Z,9.39
2022-10-11T08:55:49.299Z,9.53
2022-10-11T08:58:18.839Z,9.62
2022-10-11T09:00:47.434Z,9.76
2022-10-11T09:03:29.137Z,9.86
2022-10-11T09:06:21.920Z,9.97
2022-10-11T09:08:53.167Z,9.94
2022-10-11T09:11:54.126Z,9.93
2022-10-11T09:14:34.570Z,9.97
2022-10-11T09:17:17.742Z,10.02
2022-10-11T09:19:56.695Z,10.11
2022-10-11T09:22:33.892Z,10.14
2022-10-11T09:25:03.760Z,10.16
2022-10-11T09:28:01.777Z,10.24
2022-10-11T09:30:28.208Z,10.36
2022-10-11T09:33:04.041Z,10.31
2022-10-11T09:35:55.690Z,10.39
2022-10-11T09:38:42.569Z,10.41
2022-10-11T09:41:18.412Z,10.55
2022-10-11T09:43:48.609Z,10.64
2022-10-11T09:46:22.989Z,10.78
2022-10-11T09:48:51.036Z,10.83
2022-10-11T09:51:21.060Z,10.88
2022-10-11T09:53:58.062Z,10.88
2022-10-11T09:56:27.073Z,10.96
2022-10-11T09:59:08.425Z,11.04
2022-10-11T10:01:35.246Z,11.16
2022-10-11T10:04:17.106Z,11.22
2022-10-11T10:06:43.903Z,11.31
2022-10-11T10:09:24.809Z,11.35
2022-10-11T10:11:51.482Z,11.42
2022-10-11T10:14:29.468Z,11.53
2022-10-11T10:17:02.171Z,11.64
2022-10-11T10:19:29.702Z,11.81
2022-10-11T10:21:57.019Z,11.94
2022-10-11T10:24:42.726Z,12.02
2022-10-11T10:27:31.559Z,12.20
2022-10-11T10:30:03.297Z,12.16
2022-10-11T10:32:58.368Z,12.46
2022-10-11T10:35:25.592Z,12.67
2022-10-11T10:38:07.040Z,12.79
2022-10-11T10:41:08.275Z,12.98
2022-10-11T10:43:37.280Z,13.09
2022-10-11T10:46:18.162Z,13.08
2022-10-11T10:51:43.959Z,12.81
2022-10-11T10:54:23.502Z,12.95
2022-10-11T10:56:56.380Z,12.98
2022-10-11T10:59:47.742Z,13.13
2022-10-11T11:02:40.669Z,13.18
2022-10-11T11:05:24.028Z,13.14
2022-10-11T11:08:13.230Z,12.97
2022-10-11T11:10:49.034Z,12.98
2022-10-11T11:13:31.278Z,12.88
2022-10-11T11:16:07.429Z,12.74
2022-10-11T11:18:56.077Z,12.63
2022-10-11T11:21:29.454Z,12.55
2022-10-11T11:24:06.563Z,12.53
2022-10-11T11:26:48.023Z,12.57
2022-10-11T11:29:18.395Z,12.68
2022-10-11T11:32:09.082Z,13.01
2022-10-11T11:34:44.479Z,13.16
2022-10-11T11:37:18.282Z,13.33
2022-10-11T11:39:49.354Z,13.40
2022-10-11T11:42:24.565Z,13.30
2022-10-11T11:44:51.825Z,13.19
2022-10-11T11:47:26.032Z,13.17
2022-10-11T11:50:15.401Z,13.26
2022-10-11T11:52:45.959Z,13.54
2022-10-11T11:55:21.174Z,13.57
2022-10-11T11:57:52.164Z,13.50
2022-10-11T12:00:28.136Z,13.26
2022-10-11T12:02:57.681Z,13.12
2022-10-11T12:05:28.359Z,12.98
2022-10-11T12:07:55.166Z,12.78
2022-10-11T12:10:49.255Z,12.72
2022-10-11T12:13:21.031Z,12.67
2022-10-11T12:16:04.202Z,12.59
2022-10-11T12:18:32.885Z,12.52
2022-10-11T12:21:08.236Z,12.56
2022-10-11T12:24:23.833Z,12.55
2022-10-11T12:26:58.060Z,12.49
2022-10-11T12:29:41.600Z,12.48
2022-10-11T12:32:11.159Z,12.51
2022-10-11T12:35:03.042Z,12.51
2022-10-11T12:37:35.339Z,12.47
2022-10-11T12:40:02.270Z,12.43
2022-10-11T12:42:34.777Z,12.51
2022-10-11T12:45:13.706Z,12.48
2022-10-11T12:47:59.943Z,12.51
2022-10-11T12:50:56.840Z,12.65
2022-10-11T12:53:29.187Z,13.00
2022-10-11T12:56:08.829Z,13.33
2022-10-11T12:58:44.123Z,13.66
2022-10-11T13:01:25.079Z,13.83
2022-10-11T13:04:08.190Z,14.06
2022-10-11T13:07:02.136Z,14.30
2022-10-11T13:09:44.137Z,14.48
2022-10-11T13:12:16.466Z,14.44
2022-10-11T13:14:49.105Z,14.59
2022-10-11T13:17:24.905Z,14.46
2022-10-11T13:19:59.813Z,14.68
2022-10-11T13:22:26.704Z,14.90
2022-10-11T13:24:58.016Z,14.96
2022-10-11T13:27:26.704Z,15.01
2022-10-11T13:29:55.210Z,15.03
2022-10-11T13:32:27.803Z,15.22
2022-10-11T13:34:57.552Z,15.38
2022-10-11T13:37:31.817Z,15.22
2022-10-11T13:39:58.658Z,15.32
2022-10-11T13:42:31.346Z,15.34
2022-10-11T13:44:59.509Z,15.38
2022-10-11T13:47:30.393Z,15.29
2022-10-11T13:50:10.948Z,15.32
2022-10-11T13:52:51.163Z,15.24
2022-10-11T13:55:26.773Z,15.36
2022-10-11T13:57:54.048Z,15.35
2022-10-11T14:00:24.096Z,15.30
2022-10-11T14:02:55.150Z,15.27
2022-10-11T14:05:24.584Z,15.48
2022-10-11T14:07:51.520Z,15.69
2022-10-11T14:10:21.989Z,16.04
2022-10-11T14:13:03.258Z,16.35
2022-10-11T14:15:37.809Z,15.92
2022-10-11T14:18:40.635Z,15.65
2022-10-11T14:21:19.483Z,15.75
2022-10-11T14:23:53.769Z,15.78
2022-10-11T14:26:21.936Z,15.90
2022-10-11T14:28:52.986Z,15.99
2022-10-11T14:31:19.878Z,15.87
2022-10-11T14:33:46.598Z,15.94
2022-10-11T14:36:13.296Z,15.95
2022-10-11T14:38:40.046Z,15.87
2022-10-11T14:41:06.708Z,15.92
2022-10-11T14:43:33.407Z,15.96
2022-10-11T14:46:00.045Z,16.05
2022-10-11T14:48:50.378Z,15.95
2022-10-11T14:51:14.211Z,15.87
2022-10-11T14:53:46.245Z,15.87
2022-10-11T14:56:16.691Z,15.90
2022-10-11T14:58:47.570Z,15.92
2022-10-11T15:01:16.930Z,15.84
2022-10-11T15:03:43.954Z,15.94
2022-10-11T15:06:16.296Z,15.90
2022-10-11T15:08:42.992Z,15.95
2022-10-11T15:11:11.839Z,16.03
2022-10-11T15:13:38.566Z,16.14
2022-10-11T15:16:05.646Z,16.96
2022-10-11T15:18:32.589Z,17.29
2022-10-11T15:21:00.825Z,16.65
2022-10-11T15:23:27.630Z,17.43
2022-10-11T15:25:54.442Z,18.34
2022-10-11T15:28:27.449Z,18.49
2022-10-11T15:30:54.912Z,18.71
2022-10-11T15:33:22.155Z,17.95
2022-10-11T15:35:48.927Z,16.34
2022-10-11T15:38:17.797Z,15.66
2022-10-11T15:40:45.350Z,15.12
2022-10-11T15:43:12.341Z,14.84
2022-10-11T15:45:39.707Z,14.62
2022-10-11T15:48:06.858Z,14.41
2022-10-11T15:50:36.881Z,14.32
2022-10-11T15:53:06.282Z,14.11
2022-10-11T15:55:35.593Z,14.07
2022-10-11T15:58:02.460Z,13.91
2022-10-11T16:00:29.824Z,13.81
2022-10-11T16:02:57.562Z,13.62
2022-10-11T16:05:26.196Z,13.49
2022-10-11T16:07:53.833Z,13.37
2022-10-11T16:10:21.092Z,13.26
2022-10-11T16:12:47.841Z,13.16
2022-10-11T16:15:15.001Z,12.98
2022-10-11T16:17:41.739Z,12.83
2022-10-11T16:20:08.799Z,12.67
2022-10-11T16:22:35.903Z,12.59
2022-10-11T16:25:04.043Z,12.51
2022-10-11T16:27:31.246Z,12.43
2022-10-11T16:29:58.449Z,12.32
2022-10-11T16:32:25.541Z,12.24
2022-10-11T16:34:52.202Z,12.17
2022-10-11T16:37:19.245Z,12.09
2022-10-11T16:39:46.672Z,12.00
2022-10-11T16:42:13.338Z,11.97
2022-10-11T16:44:40.099Z,11.90
2022-10-11T16:47:07.048Z,11.81
2022-10-11T16:49:34.214Z,11.76
2022-10-11T16:52:02.589Z,11.71
2022-10-11T16:54:30.622Z,11.73
2022-10-11T16:56:58.402Z,11.73
2022-10-11T16:59:25.168Z,11.58
2022-10-11T17:01:51.917Z,11.54
2022-10-11T17:04:18.703Z,11.46
2022-10-11T17:06:45.607Z,11.38
2022-10-11T17:09:13.264Z,11.42
2022-10-11T17:11:40.738Z,11.37
2022-10-11T17:14:07.918Z,11.26
2022-10-11T17:16:35.467Z,11.26
2022-10-11T17:19:03.120Z,11.26
2022-10-11T17:21:30.081Z,11.30
2022-10-11T17:23:56.786Z,11.34
2022-10-11T17:26:26.363Z,11.39
2022-10-11T17:28:54.378Z,11.34
2022-10-11T17:31:21.432Z,11.31
2022-10-11T17:33:48.534Z,11.23
2022-10-11T17:36:23.854Z,11.19
2022-10-11T17:38:51.674Z,11.18
2022-10-11T17:41:18.709Z,11.11
2022-10-11T17:43:45.900Z,11.08
2022-10-11T17:46:14.507Z,11.00
2022-10-11T17:48:41.665Z,10.87
2022-10-11T17:51:14.230Z,10.85
2022-10-11T17:53:41.166Z,10.73
2022-10-11T17:56:10.603Z,10.76
2022-10-11T17:58:37.561Z,10.83
2022-10-11T18:01:10.835Z,10.79
2022-10-11T18:03:38.124Z,10.74
2022-10-11T18:06:06.969Z,10.72
2022-10-11T18:08:40.022Z,10.71
2022-10-11T18:11:15.942Z,10.65
2022-10-11T18:13:48.155Z,10.58
2022-10-11T18:16:16.376Z,10.60
2022-10-11T18:18:43.533Z,10.58
2022-10-11T18:21:12.051Z,10.49
2022-10-11T18:23:39.210Z,10.48
2022-10-11T18:26:13.041Z,10.45
2022-10-11T18:28:40.982Z,10.37
2022-10-11T18:31:14.336Z,10.06
2022-10-11T18:33:42.317Z,10.07
2022-10-11T18:36:10.580Z,9.95
2022-10-11T18:38:43.915Z,9.76
2022-10-11T18:41:12.172Z,9.71
2022-10-11T18:43:39.888Z,9.66
2022-10-11T18:46:08.893Z,9.62
2022-10-11T18:48:35.950Z,9.59
2022-10-11T18:51:05.187Z,9.63
2022-10-11T18:53:33.630Z,9.47
2022-10-11T18:56:01.650Z,9.40
2022-10-11T18:58:32.513Z,9.35
2022-10-11T19:01:06.276Z,9.21
2022-10-11T19:03:36.280Z,9.30
2022-10-11T19:06:18.780Z,9.27
2022-10-11T19:08:56.751Z,9.15
2022-10-11T19:11:28.962Z,9.04
2022-10-11T19:14:29.831Z,8.81
2022-10-11T19:17:10.452Z,8.82
2022-10-11T19:19:46.055Z,8.79
2022-10-11T19:22:42.898Z,8.83
2022-10-11T19:25:38.666Z,8.78
2022-10-11T19:29:13.002Z,8.67
2022-10-11T19:31:59.930Z,8.66
2022-10-11T19:35:06.073Z,8.64
2022-10-11T19:37:48.890Z,8.61
2022-10-11T19:40:37.848Z,8.59
2022-10-11T19:46:53.865Z,8.51
2022-10-11T19:49:33.094Z,8.43
2022-10-11T19:52:10.008Z,8.38
2022-10-11T19:54:39.976Z,8.29
2022-10-11T19:57:11.258Z,8.23
2022-10-11T19:59:52.942Z,8.22
2022-10-11T20:02:35.506Z,8.24
2022-10-11T20:05:08.806Z,8.24
2022-10-11T20:07:38.124Z,8.22
2022-10-11T20:10:55.048Z,8.08
2022-10-11T20:13:33.949Z,8.08
2022-10-11T20:16:11.579Z,8.05
2022-10-11T20:18:42.734Z,7.95
2022-10-11T20:21:14.851Z,7.83
2022-10-11T20:23:43.339Z,7.90
2022-10-11T20:26:13.772Z,7.86
2022-10-11T20:28:41.720Z,7.78
2022-10-11T20:31:17.209Z,7.73
2022-10-11T20:33:44.552Z,7.67
2022-10-11T20:36:14.111Z,7.70
2022-10-11T20:38:48.547Z,7.71
2022-10-11T20:41:20.690Z,7.71
2022-10-11T20:43:49.534Z,7.77
2022-10-11T20:46:29.507Z,7.68
2022-10-11T20:49:02.597Z,7.75
2022-10-11T20:51:31.202Z,7.82
2022-10-11T20:53:58.986Z,7.80
2022-10-11T20:56:26.846Z,7.74
2022-10-11T20:58:55.354Z,7.75
2022-10-11T21:01:35.686Z,7.66
2022-10-11T21:04:06.346Z,7.61
2022-10-11T21:06:40.074Z,7.49
2022-10-11T21:09:07.845Z,7.49
2022-10-11T21:11:35.786Z,7.47
2022-10-11T21:14:08.719Z,7.39
2022-10-11T21:16:35.887Z,7.37
2022-10-11T21:19:04.239Z,7.35
2022-10-11T21:21:34.809Z,7.38
2022-10-11T21:24:02.274Z,7.33
2022-10-11T21:26:29.978Z,7.45
2022-10-11T21:29:04.746Z,7.48
2022-10-11T21:31:34.754Z,7.45
2022-10-11T21:34:03.474Z,7.42
2022-10-11T21:36:30.971Z,7.37
2022-10-11T21:38:59.428Z,7.28
2022-10-11T21:41:29.165Z,7.24
2022-10-11T21:43:58.645Z,7.16
2022-10-11T21:46:47.691Z,7.25
2022-10-11T21:49:17.025Z,7.25
2022-10-11T21:51:44.055Z,7.20
2022-10-11T21:54:11.037Z,7.16
2022-10-11T21:56:37.897Z,7.11
2022-10-11T21:59:11.086Z,7.06
2022-10-11T22:01:40.179Z,7.03
2022-10-11T22:04:10.257Z,7.09
2022-10-11T22:06:40.405Z,7.16
2022-10-11T22:09:08.675Z,6.97
2022-10-11T22:11:40.509Z,6.98
2022-10-11T22:14:07.404Z,7.02
2022-10-11T22:16:34.911Z,7.13
2022-10-11T22:19:01.830Z,7.08
2022-10-11T22:21:28.951Z,7.03
2022-10-11T22:23:55.842Z,7.02
2022-10-11T22:26:35.842Z,7.06
2022-10-11T22:29:02.797Z,6.88
2022-10-11T22:31:30.116Z,6.85
2022-10-11T22:34:00.589Z,6.78
2022-10-11T22:36:30.802Z,6.81
2022-10-11T22:39:00.247Z,6.68
2022-10-11T22:41:30.636Z,6.70
2022-10-11T22:44:06.748Z,6.62
2022-10-11T22:46:35.995Z,6.65
2022-10-11T22:49:03.000Z,6.61
2022-10-11T22:51:29.988Z,6.73
2022-10-11T22:53:59.357Z,6.77
2022-10-11T22:56:26.308Z,6.73
2022-10-11T22:58:55.892Z,6.67
2022-10-11T23:01:22.774Z,6.72
2022-10-11T23:03:51.170Z,6.73
2022-10-11T23:06:18.194Z,6.80
2022-10-11T23:08:50.628Z,6.68
2022-10-11T23:11:18.268Z,6.55
2022-10-11T23:13:47.625Z,6.58
2022-10-11T23:16:14.550Z,6.61
2022-10-11T23:18:41.984Z,6.62
2022-10-11T23:21:09.486Z,6.59
2022-10-11T23:23:36.555Z,6.48
2022-10-11T23:26:09.160Z,6.47
2022-10-11T23:28:36.462Z,6.46
2022-10-11T23:31:08.478Z,6.38
2022-10-11T23:33:35.719Z,6.30
2022-10-11T23:36:03.143Z,6.40
2022-10-11T23:38:30.038Z,6.42
2022-10-11T23:40:59.799Z,6.43
2022-10-11T23:43:26.629Z,6.38
2022-10-11T23:45:55.553Z,6.44
2022-10-11T23:48:22.379Z,6.50
2022-10-11T23:50:51.521Z,6.53
2022-10-11T23:53:18.364Z,6.62
2022-10-11T23:55:47.562Z,6.64
2022-10-11T23:58:14.642Z,6.57
